This is the latest recevied weather packets stored in our database for station/object K5NAN. If no packets are shown the sender has not sent any weather packets the latest 1 day(s).
| Time | Temp. | Humidity | Pressure | Rain* | Wind** | Luminosity | Snow |
|---|---|---|---|---|---|---|---|
| 1778005810 | 27.22° C | 70% | 1003.9 hPa | 0 mm | 4.47 m/s, 195° | 431 W/m² | - |
| 1778005506 | 27.22° C | 69% | 1004.1 hPa | 0 mm | 4.92 m/s, 195° | 495 W/m² | - |
| 1778005202 | 26.67° C | 71% | 1003.9 hPa | 0 mm | 4.02 m/s, 211° | 617 W/m² | - |
| 1778004899 | 26.67° C | 70% | 1003.8 hPa | 0 mm | 3.58 m/s, 204° | 676 W/m² | - |
| 1778004596 | 27.22° C | 69% | 1003.7 hPa | 0 mm | 5.81 m/s, 147° | 470 W/m² | - |
| 1778004292 | 27.22° C | 69% | 1003.8 hPa | 0 mm | 5.36 m/s, 188° | 533 W/m² | - |
| 1778003989 | 26.67° C | 71% | 1003.9 hPa | 0 mm | 4.02 m/s, 198° | 796 W/m² | - |
| 1778003685 | 26.67° C | 70% | 1003.7 hPa | 0 mm | 7.6 m/s, 192° | 487 W/m² | - |
| 1778003382 | 26.67° C | 70% | 1003.9 hPa | 0 mm | 4.92 m/s, 159° | 656 W/m² | - |
| 1778003079 | 26.67° C | 71% | 1003.9 hPa | 0 mm | 6.26 m/s, 185° | 658 W/m² | - |
| 1778002775 | 26.67° C | 71% | 1003.9 hPa | 0 mm | 5.81 m/s, 215° | 647 W/m² | - |
| 1778002472 | 26.11° C | 71% | 1004 hPa | 0 mm | 6.26 m/s, 188° | 745 W/m² | - |
| 1778002169 | 26.11° C | 72% | 1004.3 hPa | 0 mm | 4.92 m/s, 190° | 677 W/m² | - |
| 1778001867 | 25.56° C | 72% | 1004.1 hPa | 0 mm | 5.36 m/s, 193° | 422 W/m² | - |
| 1778001566 | 25.56° C | 72% | 1004.2 hPa | 0 mm | 4.47 m/s, 213° | 387 W/m² | - |
| 1778001264 | 26.11° C | 72% | 1004.2 hPa | 0 mm | 6.26 m/s, 162° | 584 W/m² | - |
| 1778000960 | 26.11° C | 70% | 1004.1 hPa | 0 mm | 6.26 m/s, 180° | 718 W/m² | - |
| 1778000657 | 26.11° C | 71% | 1003.9 hPa | 0 mm | 5.36 m/s, 189° | 939 W/m² | - |
| 1778000352 | 25.56° C | 72% | 1004.3 hPa | 0 mm | 6.71 m/s, 180° | 698 W/m² | - |
| 1778000048 | 25.56° C | 73% | 1004.4 hPa | 0 mm | 6.71 m/s, 182° | 553 W/m² | - |
| 1777999743 | 25.56° C | 73% | 1004.4 hPa | 0 mm | 6.71 m/s, 205° | 546 W/m² | - |
| 1777999440 | 25° C | 74% | 1004.3 hPa | 0 mm | 4.47 m/s, 185° | 589 W/m² | - |
| 1777999139 | 25° C | 74% | 1004.3 hPa | 0 mm | 5.36 m/s, 200° | 437 W/m² | - |
| 1777998837 | 25° C | 74% | 1004 hPa | 0 mm | 5.36 m/s, 211° | 507 W/m² | - |
| 1777998535 | 25° C | 75% | 1003.9 hPa | 0 mm | 5.81 m/s, 189° | 518 W/m² | - |
* Rain latest hour (hover to see other rain measurements)
** Current wind speed in m/s (hover to see current wind gust speed)